Time;durP1;ratioP1;P1;durP2;ratioP2;P2;SDS_P1;SDS_P2;PMS_P1;PMS_P2;Temp;Humidity;BMP_temperature;BMP_pressure;BME280_temperature;BME280_humidity;BME280_pressure;Samples;Min_cycle;Max_cycle;Signal;HPM_P1;HPM_P2
2021/03/20 00:03:17;;;;;;;6.30;4.53;;;;;;;;;;5024617;28;20123;-56
2021/03/20 00:06:01;;;;;;;4.50;3.93;;;;;;;;;;5057368;28;20108;-56
2021/03/20 00:15:14;;;;;;;6.60;4.63;;;;;;;;;;5058492;28;20453;-56
2021/03/20 00:18:15;;;;;;;4.87;3.77;;;;;;;;;;5059578;28;20033;-57
2021/03/20 00:27:00;;;;;;;4.83;3.73;;;;;;;;;;5017520;28;20041;-57
2021/03/20 00:29:51;;;;;;;8.37;4.10;;;;;;;;;;5062335;28;20040;-57
2021/03/20 00:32:42;;;;;;;;;;;;;;;;;;;;;
2021/03/20 00:35:09;;;;;;;3.37;2.93;;;;;;;;;;5062409;28;20081;-56
2021/03/20 00:37:59;;;;;;;7.37;5.40;;;;;;;;;;5062844;28;20044;-58
2021/03/20 00:40:33;;;;;;;7.63;4.30;;;;;;;;;;5061708;28;20086;-57
2021/03/20 00:43:33;;;;;;;4.63;3.77;;;;;;;;;;5062568;28;20092;-55
2021/03/20 00:46:24;;;;;;;4.97;4.40;;;;;;;;;;5043887;28;20049;-55
2021/03/20 00:48:57;;;;;;;5.07;3.73;;;;;;;;;;5061784;28;20025;-57
2021/03/20 00:51:51;;;;;;;5.53;3.17;;;;;;;;;;5043662;28;20033;-55
2021/03/20 00:54:24;;;;;;;9.53;3.37;;;;;;;;;;5060974;28;20108;-57
2021/03/20 00:57:17;;;;;;;8.83;6.03;;;;;;;;;;5061535;28;20367;-56
2021/03/20 01:03:06;;;;;;;;;;;;;;;;;;;;;
2021/03/20 01:06:20;;;;;;;8.03;4.00;;;;;;;;;;5061317;28;20100;-55
2021/03/20 01:09:02;;;;;;;9.37;5.87;;;;;;;;;;5041821;28;20481;-57
2021/03/20 01:11:36;;;;;;;7.03;4.10;;;;;;;;;;5061933;28;20502;-58
2021/03/20 01:14:20;;;;;;;5.80;4.10;;;;;;;;;;5061788;28;20040;-57
2021/03/20 01:20:14;;;;;;;5.50;4.00;;;;;;;;;;5060134;28;20459;-56
2021/03/20 01:23:07;;;;;;;6.20;3.80;;;;;;;;;;5061225;28;20075;-57
2021/03/20 01:26:00;;;;;;;5.97;4.07;;;;;;;;;;5054489;28;20075;-54
2021/03/20 01:31:40;;;;;;;6.03;3.60;;;;;;;;;;4998233;28;20172;-58
2021/03/20 01:34:12;;;;;;;6.47;4.30;;;;;;;;;;4997949;28;20043;-58
2021/03/20 01:37:07;;;;;;;7.90;5.07;;;;;;;;;;5039533;28;20137;-57
2021/03/20 01:39:37;;;;;;;7.53;4.67;;;;;;;;;;5051165;28;20056;-54
2021/03/20 01:42:41;;;;;;;5.70;3.57;;;;;;;;;;5060269;28;20390;-55
2021/03/20 01:48:57;;;;;;;5.70;4.53;;;;;;;;;;4978574;28;20134;-57
2021/03/20 01:51:33;;;;;;;5.10;4.20;;;;;;;;;;4978851;28;20523;-57
2021/03/20 01:54:15;;;;;;;5.87;3.27;;;;;;;;;;4979655;28;20106;-57
2021/03/20 01:57:22;;;;;;;9.43;4.37;;;;;;;;;;4977765;28;20037;-58
2021/03/20 02:03:39;;;;;;;7.73;5.50;;;;;;;;;;4991613;28;20029;-57
2021/03/20 02:09:08;;;;;;;7.97;4.53;;;;;;;;;;4997978;28;20246;-58
2021/03/20 02:11:52;;;;;;;8.17;5.03;;;;;;;;;;5035855;28;20049;-57
2021/03/20 02:14:32;;;;;;;7.67;4.50;;;;;;;;;;5058901;28;20451;-56
2021/03/20 02:17:24;;;;;;;4.57;3.63;;;;;;;;;;5059799;28;20366;-58
2021/03/20 02:20:09;;;;;;;7.77;4.43;;;;;;;;;;5049130;28;20187;-57
2021/03/20 02:23:11;;;;;;;5.60;4.37;;;;;;;;;;5059228;28;20032;-58
2021/03/20 02:32:44;;;;;;;6.17;5.00;;;;;;;;;;4989501;28;20042;-57
2021/03/20 02:35:32;;;;;;;7.10;4.70;;;;;;;;;;5041503;28;20043;-56
2021/03/20 02:38:30;;;;;;;9.43;5.90;;;;;;;;;;5059290;28;20051;-55
2021/03/20 02:41:29;;;;;;;6.73;4.53;;;;;;;;;;5059442;28;20586;-58
2021/03/20 02:44:46;;;;;;;7.20;4.53;;;;;;;;;;5058844;28;20083;-57
2021/03/20 02:47:35;;;;;;;5.13;3.97;;;;;;;;;;5012414;28;20037;-56
2021/03/20 02:50:26;;;;;;;6.67;5.37;;;;;;;;;;5040562;28;20044;-57
2021/03/20 02:52:55;;;;;;;;;;;;;;;;;;5059597;28;20029;-58
2021/03/20 02:55:44;;;;;;;5.40;3.60;;;;;;;;;;5023923;28;19905;-57
2021/03/20 03:01:27;;;;;;;8.00;4.33;;;;;;;;;;5058274;28;20426;-57
2021/03/20 03:04:34;;;;;;;6.53;5.30;;;;;;;;;;5058402;28;20033;-58
2021/03/20 03:07:29;;;;;;;8.47;4.97;;;;;;;;;;4977620;28;20086;-56
2021/03/20 03:10:16;;;;;;;7.47;5.70;;;;;;;;;;4977344;28;20034;-56
2021/03/20 03:12:50;;;;;;;7.47;5.43;;;;;;;;;;4977713;28;20141;-56
2021/03/20 03:18:56;;;;;;;7.43;5.40;;;;;;;;;;5011972;28;20033;-56
2021/03/20 03:21:34;;;;;;;7.10;5.72;;;;;;;;;;5058277;28;20036;-56
2021/03/20 03:24:24;;;;;;;6.70;4.60;;;;;;;;;;5039939;28;20078;-57
2021/03/20 03:27:31;;;;;;;11.03;5.17;;;;;;;;;;5052534;28;20115;-57
2021/03/20 03:32:51;;;;;;;6.33;3.50;;;;;;;;;;5037279;28;20035;-57
2021/03/20 03:35:36;;;;;;;5.67;4.80;;;;;;;;;;5058570;28;20117;-57
2021/03/20 03:38:24;;;;;;;8.60;5.43;;;;;;;;;;5058140;28;20032;-56
2021/03/20 03:41:10;;;;;;;6.30;5.70;;;;;;;;;;5040458;28;20120;-57
2021/03/20 03:43:36;;;;;;;5.43;4.90;;;;;;;;;;5058304;28;20043;-57
2021/03/20 03:52:29;;;;;;;7.60;5.50;;;;;;;;;;5047691;28;20029;-57
2021/03/20 03:54:55;;;;;;;6.63;5.57;;;;;;;;;;5030331;28;20037;-57
2021/03/20 03:57:45;;;;;;;9.27;6.97;;;;;;;;;;5058168;28;20116;-58
2021/03/20 04:00:34;;;;;;;7.63;6.55;;;;;;;;;;5060013;28;20013;-58
2021/03/20 04:03:41;;;;;;;;;;;;;;;;;;;;;
2021/03/20 04:06:32;;;;;;;7.87;6.40;;;;;;;;;;5059493;28;20566;-56
2021/03/20 04:09:26;;;;;;;8.87;5.87;;;;;;;;;;5061116;28;20037;-56
2021/03/20 04:12:18;;;;;;;7.83;5.37;;;;;;;;;;5062003;28;20029;-57
2021/03/20 04:15:05;;;;;;;7.23;5.57;;;;;;;;;;5061516;28;20025;-57
2021/03/20 04:17:52;;;;;;;7.47;5.97;;;;;;;;;;5061472;28;20029;-57
2021/03/20 04:20:49;;;;;;;7.13;5.43;;;;;;;;;;5061991;28;20035;-57
2021/03/20 04:23:36;;;;;;;5.97;5.30;;;;;;;;;;5049145;28;20040;-56
2021/03/20 04:26:39;;;;;;;7.23;5.07;;;;;;;;;;5041761;28;20529;-56
2021/03/20 04:29:33;;;;;;;6.70;5.53;;;;;;;;;;5041338;28;20102;-57
2021/03/20 04:35:22;;;;;;;6.63;4.90;;;;;;;;;;5041688;28;20041;-58
2021/03/20 04:38:02;;;;;;;7.93;5.20;;;;;;;;;;5041907;28;20061;-52
2021/03/20 04:41:00;;;;;;;5.80;4.57;;;;;;;;;;5041445;28;20018;-55
2021/03/20 04:44:01;;;;;;;7.30;5.20;;;;;;;;;;5041146;28;20033;-57
2021/03/20 04:47:06;;;;;;;6.22;5.63;;;;;;;;;;5041544;28;20034;-55
2021/03/20 04:49:53;;;;;;;7.33;4.30;;;;;;;;;;4964000;28;20195;-57
2021/03/20 04:52:38;;;;;;;7.80;6.00;;;;;;;;;;4965043;28;20385;-57
2021/03/20 04:55:51;;;;;;;6.53;5.13;;;;;;;;;;5041528;28;20036;-55
2021/03/20 05:01:28;;;;;;;6.10;5.45;;;;;;;;;;5030994;28;20455;-57
2021/03/20 05:04:02;;;;;;;9.40;6.17;;;;;;;;;;5041730;28;20044;-55
2021/03/20 05:06:49;;;;;;;7.03;6.20;;;;;;;;;;5042199;28;20037;-56
2021/03/20 05:12:52;;;;;;;9.60;3.10;;;;;;;;;;5040999;28;20112;-57
2021/03/20 05:18:24;;;;;;;7.50;5.73;;;;;;;;;;5041489;28;20422;-56
2021/03/20 05:21:20;;;;;;;;;;;;;;;;;;;;;
2021/03/20 05:23:53;;;;;;;6.90;4.90;;;;;;;;;;5042362;28;20104;-54
2021/03/20 05:26:45;;;;;;;5.20;4.33;;;;;;;;;;5062030;28;20036;-57
2021/03/20 05:29:22;;;;;;;9.73;5.57;;;;;;;;;;5043814;28;20029;-55
2021/03/20 05:32:08;;;;;;;6.83;5.70;;;;;;;;;;5061336;28;20048;-56
2021/03/20 05:38:09;;;;;;;;;;;;;;;;;;;;;
2021/03/20 05:43:52;;;;;;;6.93;5.27;;;;;;;;;;5052242;28;20029;-56
2021/03/20 05:46:38;;;;;;;7.70;5.23;;;;;;;;;;5060229;28;20025;-53
2021/03/20 05:49:39;;;;;;;;;;;;;;;;;;;;;
2021/03/20 05:55:39;;;;;;;8.03;6.27;;;;;;;;;;5049021;28;20056;-56
2021/03/20 05:58:21;;;;;;;7.30;5.80;;;;;;;;;;5042075;28;20025;-55
2021/03/20 06:00:58;;;;;;;5.90;4.40;;;;;;;;;;5060086;28;20530;-56
2021/03/20 06:03:45;;;;;;;6.70;5.60;;;;;;;;;;5060399;28;20041;-55
2021/03/20 06:06:27;;;;;;;8.43;5.13;;;;;;;;;;5042185;28;20063;-56
2021/03/20 06:09:41;;;;;;;8.93;5.67;;;;;;;;;;5060773;28;20099;-56
2021/03/20 06:12:26;;;;;;;10.07;5.67;;;;;;;;;;4978943;28;20466;-53
2021/03/20 06:15:13;;;;;;;9.90;7.07;;;;;;;;;;4978623;28;20109;-57
2021/03/20 06:21:50;;;;;;;;;;;;;;;;;;;;;
2021/03/20 06:24:54;;;;;;;;;;;;;;;;;;;;;
2021/03/20 06:30:50;;;;;;;4.83;3.90;;;;;;;;;;5048018;28;20039;-56
2021/03/20 06:33:41;;;;;;;;;;;;;;;;;;;;;
2021/03/20 06:36:36;;;;;;;4.13;3.70;;;;;;;;;;5054455;28;19996;-56
2021/03/20 06:39:38;;;;;;;7.40;5.33;;;;;;;;;;5059154;28;20021;-56
2021/03/20 06:45:40;;;;;;;6.30;4.90;;;;;;;;;;5058666;28;20067;-55
2021/03/20 06:48:29;;;;;;;5.63;4.00;;;;;;;;;;5060000;28;20021;-56
2021/03/20 06:51:07;;;;;;;6.43;5.17;;;;;;;;;;5059219;28;20366;-55
2021/03/20 06:54:01;;;;;;;4.70;3.43;;;;;;;;;;5041627;28;20031;-55
2021/03/20 06:57:09;;;;;;;7.40;5.63;;;;;;;;;;5058142;28;20021;-55
2021/03/20 06:59:58;;;;;;;5.67;4.07;;;;;;;;;;5019494;28;20108;-56
2021/03/20 07:02:42;;;;;;;5.63;4.60;;;;;;;;;;5058810;28;20024;-57
2021/03/20 07:05:24;;;;;;;11.70;5.03;;;;;;;;;;5059284;28;20033;-56
2021/03/20 07:08:26;;;;;;;9.70;4.67;;;;;;;;;;5058802;28;20036;-56
2021/03/20 07:10:58;;;;;;;4.50;3.50;;;;;;;;;;5059204;28;20025;-55
2021/03/20 07:13:46;;;;;;;3.50;2.60;;;;;;;;;;5059599;28;20431;-56
2021/03/20 07:16:35;;;;;;;4.23;3.50;;;;;;;;;;5057135;28;20058;-55
2021/03/20 07:19:31;;;;;;;4.63;3.20;;;;;;;;;;5058001;28;20021;-57
2021/03/20 07:22:20;;;;;;;5.37;3.33;;;;;;;;;;5059263;28;20512;-56
2021/03/20 07:30:38;;;;;;;4.57;2.57;;;;;;;;;;5047682;28;20064;-57
2021/03/20 07:36:35;;;;;;;3.08;2.28;;;;;;;;;;5049852;28;20029;-56
2021/03/20 07:39:33;;;;;;;4.67;2.97;;;;;;;;;;5059891;28;20073;-57
2021/03/20 07:42:25;;;;;;;3.93;2.43;;;;;;;;;;5059586;28;20032;-55
2021/03/20 07:45:23;;;;;;;4.07;3.27;;;;;;;;;;5038816;28;20033;-55
2021/03/20 07:48:27;;;;;;;4.07;3.10;;;;;;;;;;5013721;28;20032;-57
2021/03/20 07:51:18;;;;;;;3.00;1.90;;;;;;;;;;5044998;28;20033;-55
2021/03/20 07:53:52;;;;;;;5.20;3.30;;;;;;;;;;5059367;28;20017;-57
2021/03/20 08:00:05;;;;;;;3.57;2.73;;;;;;;;;;4996490;28;20033;-57
2021/03/20 08:02:51;;;;;;;3.53;2.67;;;;;;;;;;4977129;28;20280;-57
2021/03/20 08:05:32;;;;;;;4.90;2.80;;;;;;;;;;5059215;28;20443;-57
2021/03/20 08:08:17;;;;;;;5.00;2.63;;;;;;;;;;5058441;28;20111;-57
2021/03/20 08:11:20;;;;;;;3.43;2.67;;;;;;;;;;5058079;28;20024;-54
2021/03/20 08:17:08;;;;;;;6.27;3.10;;;;;;;;;;5053024;28;20387;-57
2021/03/20 08:26:29;;;;;;;5.67;2.70;;;;;;;;;;5057232;28;20126;-57
2021/03/20 08:29:14;;;;;;;5.03;2.53;;;;;;;;;;5056989;28;20025;-54
2021/03/20 08:32:08;;;;;;;5.07;3.63;;;;;;;;;;5056434;28;20481;-56
2021/03/20 08:34:47;;;;;;;4.30;2.20;;;;;;;;;;5057255;28;20025;-54
2021/03/20 08:37:44;;;;;;;3.43;2.43;;;;;;;;;;5057755;28;20031;-56
2021/03/20 08:40:32;;;;;;;1.97;1.60;;;;;;;;;;5057220;28;20025;-57
2021/03/20 08:43:19;;;;;;;6.37;3.03;;;;;;;;;;5058310;28;20021;-56
2021/03/20 08:45:57;;;;;;;3.20;2.37;;;;;;;;;;5058199;28;20544;-56
2021/03/20 08:49:02;;;;;;;2.97;1.50;;;;;;;;;;5060728;28;20060;-55
2021/03/20 08:51:52;;;;;;;3.30;2.17;;;;;;;;;;5042033;28;20108;-57
2021/03/20 08:57:49;;;;;;;2.03;1.80;;;;;;;;;;5060874;28;20094;-55
2021/03/20 09:00:45;;;;;;;2.53;2.17;;;;;;;;;;5061675;28;20045;-56
2021/03/20 09:03:27;;;;;;;3.33;2.50;;;;;;;;;;5043658;28;20037;-57
2021/03/20 09:06:28;;;;;;;3.73;2.20;;;;;;;;;;5062040;28;20029;-58
2021/03/20 09:09:29;;;;;;;3.83;2.35;;;;;;;;;;5059908;28;20039;-56
2021/03/20 09:12:32;;;;;;;5.23;4.40;;;;;;;;;;5055107;28;20031;-57
2021/03/20 09:15:23;;;;;;;11.30;4.23;;;;;;;;;;5042472;28;20032;-56
2021/03/20 09:21:10;;;;;;;2.37;1.60;;;;;;;;;;5060328;28;20060;-57
2021/03/20 09:24:04;;;;;;;3.67;2.10;;;;;;;;;;5060098;28;20475;-57
2021/03/20 09:30:10;;;;;;;3.50;1.90;;;;;;;;;;5048980;28;20040;-56
2021/03/20 09:33:05;;;;;;;3.47;2.47;;;;;;;;;;5040125;28;20037;-55
2021/03/20 09:38:48;;;;;;;1.70;1.10;;;;;;;;;;5059663;28;20360;-56
2021/03/20 09:44:28;;;;;;;4.63;2.37;;;;;;;;;;4998153;28;20062;-57
2021/03/20 09:47:14;;;;;;;2.77;1.60;;;;;;;;;;5004671;28;20116;-57
2021/03/20 09:50:00;;;;;;;;;;;;;;;;;;;;;
2021/03/20 09:53:17;;;;;;;4.03;2.80;;;;;;;;;;5060297;28;20107;-56
2021/03/20 09:56:04;;;;;;;;;;;;;;;;;;;;;
2021/03/20 09:58:55;;;;;;;3.70;3.03;;;;;;;;;;5056183;28;20108;-57
2021/03/20 10:01:42;;;;;;;4.83;2.63;;;;;;;;;;5042269;28;20115;-56
2021/03/20 10:04:27;;;;;;;1.57;1.00;;;;;;;;;;5060532;28;20524;-57
2021/03/20 10:07:14;;;;;;;3.87;2.47;;;;;;;;;;5059691;28;20090;-56
2021/03/20 10:10:04;;;;;;;3.07;1.87;;;;;;;;;;5059769;28;20344;-57
2021/03/20 10:16:06;;;;;;;4.40;1.37;;;;;;;;;;5046809;28;20119;-57
2021/03/20 10:19:20;;;;;;;2.60;2.07;;;;;;;;;;5060740;28;20108;-57
2021/03/20 10:21:57;;;;;;;2.60;1.67;;;;;;;;;;5053057;28;20062;-57
2021/03/20 10:24:45;;;;;;;3.43;2.17;;;;;;;;;;5059840;28;20519;-57
2021/03/20 10:27:43;;;;;;;3.10;2.33;;;;;;;;;;5058676;28;20457;-57
2021/03/20 10:33:38;;;;;;;3.77;2.17;;;;;;;;;;5055425;28;20117;-57
2021/03/20 10:39:51;;;;;;;;;;;;;;;;;;;;;
2021/03/20 10:42:33;;;;;;;2.43;1.40;;;;;;;;;;5018104;28;20040;-56
2021/03/20 10:45:00;;;;;;;2.27;1.67;;;;;;;;;;5057338;28;20381;-55
2021/03/20 10:47:46;;;;;;;2.50;1.70;;;;;;;;;;5054737;28;20425;-57
2021/03/20 10:50:44;;;;;;;1.20;1.10;;;;;;;;;;5022706;28;20031;-57
2021/03/20 10:53:40;;;;;;;2.33;1.27;;;;;;;;;;5036538;28;20471;-57
2021/03/20 10:59:27;;;;;;;2.93;1.83;;;;;;;;;;5054307;28;20463;-57
2021/03/20 11:02:19;;;;;;;1.47;0.80;;;;;;;;;;5036161;28;20045;-57
2021/03/20 11:04:51;;;;;;;3.73;1.77;;;;;;;;;;5054217;28;20417;-57
2021/03/20 11:10:54;;;;;;;;;;;;;;;;;;;;;
2021/03/20 11:13:34;;;;;;;2.27;1.40;;;;;;;;;;5006917;28;20040;-58
2021/03/20 11:16:22;;;;;;;2.40;1.38;;;;;;;;;;5054171;28;20017;-57
2021/03/20 11:19:20;;;;;;;2.10;1.00;;;;;;;;;;5036847;28;20532;-57
2021/03/20 11:24:59;;;;;;;4.67;2.20;;;;;;;;;;5022571;28;20037;-58
2021/03/20 11:31:12;;;;;;;;;;;;;;;;;;;;;
2021/03/20 11:33:54;;;;;;;3.67;1.90;;;;;;;;;;5050053;28;20043;-57
2021/03/20 11:39:36;;;;;;;3.00;1.67;;;;;;;;;;5053948;28;20032;-57
2021/03/20 11:42:59;;;;;;;5.30;2.13;;;;;;;;;;5054633;28;20036;-58
2021/03/20 11:45:45;;;;;;;4.03;2.13;;;;;;;;;;4954263;29;20118;-58
2021/03/20 11:54:59;;;;;;;3.97;2.03;;;;;;;;;;4982675;28;20034;-58
2021/03/20 11:57:28;;;;;;;;;;;;;;;;;;4992959;28;20042;-58
2021/03/20 12:00:09;;;;;;;3.17;2.20;;;;;;;;;;5017532;28;19905;-57
2021/03/20 12:02:42;;;;;;;4.15;2.80;;;;;;;;;;5031482;28;20037;-56
2021/03/20 12:05:18;;;;;;;3.27;2.37;;;;;;;;;;5031988;28;20111;-58
2021/03/20 12:08:00;;;;;;;4.83;2.03;;;;;;;;;;5032142;28;20383;-57
2021/03/20 12:10:48;;;;;;;4.73;2.47;;;;;;;;;;5014904;28;20101;-55
2021/03/20 12:13:36;;;;;;;3.33;2.00;;;;;;;;;;5031162;28;20072;-58
2021/03/20 12:16:43;;;;;;;3.63;2.40;;;;;;;;;;5015967;28;20033;-58
2021/03/20 12:22:42;;;;;;;2.88;2.15;;;;;;;;;;5022837;28;20044;-58
2021/03/20 12:28:38;;;;;;;3.07;1.87;;;;;;;;;;5056702;28;20060;-58
2021/03/20 12:31:24;;;;;;;3.10;2.17;;;;;;;;;;5059054;28;20083;-57
2021/03/20 12:34:11;;;;;;;3.33;2.57;;;;;;;;;;5040294;28;20096;-58
2021/03/20 12:36:54;;;;;;;3.57;2.40;;;;;;;;;;5039104;28;20033;-56
2021/03/20 12:39:58;;;;;;;6.93;2.57;;;;;;;;;;5040188;28;20443;-58
2021/03/20 12:43:03;;;;;;;2.97;1.87;;;;;;;;;;5053234;28;20067;-58
2021/03/20 12:45:58;;;;;;;;;;;;;;;;;;;;;
2021/03/20 12:51:45;;;;;;;4.53;2.67;;;;;;;;;;5054355;28;20463;-57
2021/03/20 12:54:39;;;;;;;;;;;;;;;;;;;;;
2021/03/20 12:57:33;;;;;;;3.10;1.87;;;;;;;;;;5057008;28;20370;-54
2021/03/20 13:00:42;;;;;;;4.60;2.40;;;;;;;;;;5056201;28;20043;-58
2021/03/20 13:03:20;;;;;;;3.00;2.27;;;;;;;;;;4959262;28;20139;-57
2021/03/20 13:05:59;;;;;;;;;;;;;;;;;;;;;
2021/03/20 13:08:33;;;;;;;3.90;2.57;;;;;;;;;;4975650;28;20030;-58
2021/03/20 13:11:22;;;;;;;9.37;3.00;;;;;;;;;;4975221;28;20042;-58
2021/03/20 13:14:10;;;;;;;3.43;2.93;;;;;;;;;;4975137;28;20477;-57
2021/03/20 13:16:47;;;;;;;5.00;2.70;;;;;;;;;;4975032;28;20019;-57
2021/03/20 13:22:32;;;;;;;2.90;2.10;;;;;;;;;;4975090;28;20115;-57
2021/03/20 13:25:39;;;;;;;3.83;3.27;;;;;;;;;;4976103;28;20051;-55
2021/03/20 13:28:24;;;;;;;6.30;3.30;;;;;;;;;;4974261;28;20061;-52
2021/03/20 13:31:09;;;;;;;3.43;3.03;;;;;;;;;;4975765;28;20066;-56
2021/03/20 13:33:55;;;;;;;7.20;2.83;;;;;;;;;;4958826;28;20138;-57
2021/03/20 13:36:53;;;;;;;2.63;1.87;;;;;;;;;;4975648;28;20110;-57
2021/03/20 13:39:35;;;;;;;3.93;2.27;;;;;;;;;;5022554;28;20034;-57
2021/03/20 13:42:31;;;;;;;2.83;1.73;;;;;;;;;;5036741;28;20037;-57
2021/03/20 13:45:24;;;;;;;6.23;2.00;;;;;;;;;;5036484;28;20053;-54
2021/03/20 13:48:06;;;;;;;;;;;;;;;;;;;;;
2021/03/20 13:50:50;;;;;;;3.30;2.97;;;;;;;;;;5035872;28;20387;-56
2021/03/20 13:53:40;;;;;;;4.47;3.17;;;;;;;;;;5036243;28;20018;-57
2021/03/20 13:56:25;;;;;;;3.47;2.25;;;;;;;;;;5036579;28;20108;-55
2021/03/20 13:59:08;;;;;;;6.43;3.03;;;;;;;;;;5035363;28;20540;-55
2021/03/20 14:05:14;;;;;;;4.90;2.50;;;;;;;;;;5035944;28;20091;-54
2021/03/20 14:07:49;;;;;;;6.03;2.73;;;;;;;;;;5013961;28;20171;-56
2021/03/20 14:10:23;;;;;;;3.87;2.73;;;;;;;;;;5036341;28;20034;-56
2021/03/20 14:12:52;;;;;;;3.47;2.37;;;;;;;;;;5017846;28;20029;-54
2021/03/20 14:15:50;;;;;;;4.40;2.50;;;;;;;;;;5035363;28;20071;-57
2021/03/20 14:18:37;;;;;;;5.10;2.47;;;;;;;;;;5006214;28;20088;-56
2021/03/20 14:21:19;;;;;;;;;;;;;;;;;;;;;
2021/03/20 14:27:11;;;;;;;3.97;2.43;;;;;;;;;;5035212;28;20113;-57
2021/03/20 14:30:14;;;;;;;4.50;2.37;;;;;;;;;;5012028;28;20037;-57
2021/03/20 14:38:40;;;;;;;3.87;2.60;;;;;;;;;;5034720;28;20041;-57
2021/03/20 14:44:43;;;;;;;4.53;2.60;;;;;;;;;;5032319;28;20025;-58
2021/03/20 14:47:18;;;;;;;3.30;2.20;;;;;;;;;;5027590;28;20029;-57
2021/03/20 14:50:01;;;;;;;;;;;;;;;;;;;;;
2021/03/20 14:52:33;;;;;;;3.27;2.23;;;;;;;;;;5026646;28;20144;-57
2021/03/20 14:55:18;;;;;;;3.87;2.13;;;;;;;;;;5034985;28;20487;-57
2021/03/20 14:58:05;;;;;;;3.60;3.07;;;;;;;;;;5016363;28;20430;-54
2021/03/20 15:00:39;;;;;;;5.57;2.20;;;;;;;;;;5034438;28;20108;-56
2021/03/20 15:03:29;;;;;;;3.57;2.47;;;;;;;;;;5032949;28;20034;-57
2021/03/20 15:06:05;;;;;;;2.80;1.88;;;;;;;;;;5017548;28;20029;-56
2021/03/20 15:09:12;;;;;;;3.70;1.83;;;;;;;;;;5033864;28;20037;-55
2021/03/20 15:12:19;;;;;;;;;;;;;;;;;;;;;
2021/03/20 15:15:06;;;;;;;4.10;2.70;;;;;;;;;;5033141;28;20051;-56
2021/03/20 15:20:39;;;;;;;5.60;2.53;;;;;;;;;;5033952;28;20029;-56
2021/03/20 15:23:27;;;;;;;;;;;;;;;;;;;;;
2021/03/20 15:26:06;;;;;;;3.53;2.00;;;;;;;;;;4986815;28;20045;-54
2021/03/20 15:28:38;;;;;;;5.20;2.87;;;;;;;;;;5027924;28;20491;-55
2021/03/20 15:31:44;;;;;;;5.00;2.57;;;;;;;;;;5035942;28;20033;-55
2021/03/20 15:34:17;;;;;;;5.07;2.20;;;;;;;;;;5035605;28;20025;-56
2021/03/20 15:37:22;;;;;;;3.07;2.33;;;;;;;;;;5054418;28;20056;-56
2021/03/20 15:39:56;;;;;;;6.53;1.97;;;;;;;;;;4952999;28;20106;-57
2021/03/20 15:42:54;;;;;;;3.70;2.03;;;;;;;;;;4954041;29;20401;-55
2021/03/20 15:45:33;;;;;;;2.27;1.27;;;;;;;;;;5005383;28;20044;-57
2021/03/20 15:48:03;;;;;;;5.67;2.40;;;;;;;;;;5035200;28;20055;-56
2021/03/20 15:50:41;;;;;;;4.50;1.90;;;;;;;;;;5053685;28;20044;-57
2021/03/20 15:53:30;;;;;;;2.73;1.93;;;;;;;;;;5054393;28;20112;-53
2021/03/20 15:56:09;;;;;;;5.37;2.43;;;;;;;;;;5037920;28;20519;-55
2021/03/20 15:59:05;;;;;;;3.83;2.27;;;;;;;;;;5058158;28;20021;-57
2021/03/20 16:01:55;;;;;;;2.80;2.20;;;;;;;;;;5056291;28;20067;-56
2021/03/20 16:04:36;;;;;;;2.83;1.80;;;;;;;;;;5057640;28;20156;-57
2021/03/20 16:07:25;;;;;;;2.87;1.43;;;;;;;;;;5040409;28;20025;-57
2021/03/20 16:10:51;;;;;;;2.83;1.53;;;;;;;;;;5057301;28;20029;-57
2021/03/20 16:13:31;;;;;;;3.27;2.07;;;;;;;;;;5058201;28;20478;-55
2021/03/20 16:16:19;;;;;;;3.27;1.90;;;;;;;;;;5041308;28;20037;-57
2021/03/20 16:19:01;;;;;;;2.80;1.87;;;;;;;;;;5055593;28;20075;-58
2021/03/20 16:22:07;;;;;;;;;;;;;;;;;;;;;
2021/03/20 16:27:38;;;;;;;4.00;2.30;;;;;;;;;;5057458;28;20039;-56
2021/03/20 16:30:29;;;;;;;2.97;1.90;;;;;;;;;;5044339;28;20069;-59
2021/03/20 16:33:13;;;;;;;3.90;2.43;;;;;;;;;;5027680;28;20029;-58
2021/03/20 16:38:49;;;;;;;4.00;2.70;;;;;;;;;;5015127;28;20184;-56
2021/03/20 16:44:22;;;;;;;1.93;1.57;;;;;;;;;;4956518;28;20119;-56
2021/03/20 16:52:38;;;;;;;4.47;2.43;;;;;;;;;;4965163;28;20034;-57
2021/03/20 16:55:17;;;;;;;4.47;1.77;;;;;;;;;;4992499;28;20425;-58
2021/03/20 16:57:55;;;;;;;3.03;1.77;;;;;;;;;;5057814;28;20504;-58
2021/03/20 17:00:49;;;;;;;;;;;;;;;;;;;;;
2021/03/20 17:09:31;;;;;;;2.60;1.80;;;;;;;;;;5041963;28;20493;-58
2021/03/20 17:12:10;;;;;;;4.15;2.03;;;;;;;;;;5039161;28;20033;-58
2021/03/20 17:14:42;;;;;;;2.03;1.17;;;;;;;;;;5057384;28;20029;-57
2021/03/20 17:20:14;;;;;;;2.67;1.60;;;;;;;;;;5056989;28;20111;-58
2021/03/20 17:22:52;;;;;;;5.30;2.20;;;;;;;;;;5057500;28;20021;-58
2021/03/20 17:25:36;;;;;;;3.23;1.57;;;;;;;;;;5058885;28;20036;-56
2021/03/20 17:28:11;;;;;;;3.03;1.93;;;;;;;;;;5056115;28;20048;-57
2021/03/20 17:31:05;;;;;;;2.97;1.90;;;;;;;;;;5034453;28;20048;-57
2021/03/20 17:33:47;;;;;;;;;;;;;;;;;;;;;
2021/03/20 17:39:13;;;;;;;1.97;1.40;;;;;;;;;;5026703;28;20030;-58
2021/03/20 17:42:05;;;;;;;1.93;1.43;;;;;;;;;;5033350;28;20176;-56
2021/03/20 17:44:38;;;;;;;2.57;1.73;;;;;;;;;;5032818;28;20049;-58
2021/03/20 17:47:12;;;;;;;4.50;2.30;;;;;;;;;;5033623;28;20028;-58
2021/03/20 17:53:03;;;;;;;9.63;2.40;;;;;;;;;;5027737;28;20034;-58
2021/03/20 18:02:11;;;;;;;4.03;2.07;;;;;;;;;;5041333;28;20036;-58
2021/03/20 18:04:24;;;;;;;4.55;2.08;;;;;;;;;;5046700;28;20052;-58
2021/03/20 18:07:07;;;;;;;4.00;2.20;;;;;;;;;;5055781;28;20028;-58
2021/03/20 18:09:36;;;;;;;3.20;2.43;;;;;;;;;;5056045;28;20481;-56
2021/03/20 18:12:03;;;;;;;3.57;2.70;;;;;;;;;;5021262;28;20475;-57
2021/03/20 18:14:44;;;;;;;3.93;2.43;;;;;;;;;;5036903;28;20055;-57
2021/03/20 18:20:13;;;;;;;3.97;2.40;;;;;;;;;;5043574;28;20021;-59
2021/03/20 18:23:02;;;;;;;5.57;1.93;;;;;;;;;;5054995;28;20029;-56
2021/03/20 18:25:47;;;;;;;3.00;2.17;;;;;;;;;;5025288;28;20495;-58
2021/03/20 18:28:21;;;;;;;3.47;1.90;;;;;;;;;;5054970;28;20048;-56
2021/03/20 18:34:21;;;;;;;3.27;2.10;;;;;;;;;;5055204;28;20036;-56
2021/03/20 18:36:53;;;;;;;3.37;2.43;;;;;;;;;;5020409;28;20418;-58
2021/03/20 18:39:38;;;;;;;4.73;2.60;;;;;;;;;;5055048;28;20033;-57
2021/03/20 18:42:10;;;;;;;3.30;1.40;;;;;;;;;;5055597;28;20025;-57
2021/03/20 18:44:57;;;;;;;2.77;2.03;;;;;;;;;;5036798;28;20041;-58
2021/03/20 18:47:59;;;;;;;;;;;;;;;;;;;;;
2021/03/20 18:51:03;;;;;;;5.20;2.30;;;;;;;;;;5051132;28;20039;-58
2021/03/20 18:53:34;;;;;;;3.40;2.53;;;;;;;;;;5032927;28;20044;-59
2021/03/20 18:56:29;;;;;;;5.67;2.27;;;;;;;;;;5036703;28;20505;-58
2021/03/20 18:59:15;;;;;;;3.77;2.50;;;;;;;;;;5033084;28;20037;-58
2021/03/20 19:01:57;;;;;;;5.90;2.70;;;;;;;;;;5032711;28;20467;-58
2021/03/20 19:07:42;;;;;;;5.70;3.70;;;;;;;;;;5025569;28;20045;-58
2021/03/20 19:10:11;;;;;;;5.07;3.13;;;;;;;;;;4953180;28;20031;-57
2021/03/20 19:12:52;;;;;;;6.30;3.25;;;;;;;;;;4965634;28;20403;-57
2021/03/20 19:18:48;;;;;;;4.93;2.73;;;;;;;;;;5013160;28;20041;-58
2021/03/20 19:21:33;;;;;;;5.23;2.97;;;;;;;;;;5031933;28;20045;-57
2021/03/20 19:24:02;;;;;;;3.83;2.40;;;;;;;;;;5031805;28;20475;-58
2021/03/20 19:26:40;;;;;;;3.23;1.77;;;;;;;;;;5032008;28;20388;-56
2021/03/20 19:29:16;;;;;;;5.07;2.53;;;;;;;;;;5035323;28;20033;-58
2021/03/20 19:32:09;;;;;;;4.03;2.67;;;;;;;;;;5034896;28;20481;-56
2021/03/20 19:35:01;;;;;;;3.53;2.47;;;;;;;;;;5030760;28;20030;-58
2021/03/20 19:37:46;;;;;;;4.07;2.90;;;;;;;;;;5033658;28;20083;-56
2021/03/20 19:43:34;;;;;;;7.73;2.80;;;;;;;;;;5034410;28;20037;-58
2021/03/20 19:46:10;;;;;;;3.93;2.30;;;;;;;;;;5033664;28;20076;-55
2021/03/20 19:48:46;;;;;;;3.20;2.40;;;;;;;;;;5015183;28;20061;-56
2021/03/20 19:51:25;;;;;;;3.50;2.43;;;;;;;;;;5014525;28;20117;-58
2021/03/20 19:54:09;;;;;;;2.83;1.97;;;;;;;;;;5034837;28;20452;-58
2021/03/20 20:00:07;;;;;;;3.40;2.20;;;;;;;;;;5033489;28;20079;-58
2021/03/20 20:02:39;;;;;;;8.13;3.30;;;;;;;;;;5033393;28;20032;-57
2021/03/20 20:05:19;;;;;;;;;;;;;;;;;;;;;
2021/03/20 20:07:57;;;;;;;4.20;2.30;;;;;;;;;;5033700;28;20055;-58
2021/03/20 20:10:29;;;;;;;6.47;3.07;;;;;;;;;;5034220;28;20025;-57
2021/03/20 20:13:22;;;;;;;6.37;2.27;;;;;;;;;;5015841;28;20025;-57
2021/03/20 20:15:58;;;;;;;5.50;2.67;;;;;;;;;;5033043;28;20053;-57
2021/03/20 20:18:57;;;;;;;6.43;3.60;;;;;;;;;;5028639;28;20059;-56
2021/03/20 20:21:29;;;;;;;6.60;3.63;;;;;;;;;;5033051;28;20041;-56
2021/03/20 20:24:08;;;;;;;8.03;3.97;;;;;;;;;;5015228;28;20037;-57
2021/03/20 20:26:50;;;;;;;;;;;;;;;;;;;;;
2021/03/20 20:29:30;;;;;;;5.97;3.77;;;;;;;;;;5031752;28;20034;-58
2021/03/20 20:32:03;;;;;;;5.00;3.80;;;;;;;;;;5034850;28;20391;-57
2021/03/20 20:34:56;;;;;;;5.53;3.30;;;;;;;;;;5053391;28;20029;-56
2021/03/20 20:37:28;;;;;;;5.27;3.03;;;;;;;;;;5053926;28;20510;-58
2021/03/20 20:40:03;;;;;;;6.10;3.40;;;;;;;;;;5035232;28;20036;-57
2021/03/20 20:43:03;;;;;;;;;;;;;;;;;;;;;
2021/03/20 20:45:55;;;;;;;4.10;3.17;;;;;;;;;;5053496;28;20037;-58
2021/03/20 20:48:46;;;;;;;5.22;3.65;;;;;;;;;;5056536;28;20040;-59
2021/03/20 20:51:43;;;;;;;4.57;3.07;;;;;;;;;;5057725;28;20021;-56
2021/03/20 20:54:34;;;;;;;3.87;2.87;;;;;;;;;;5056207;28;20029;-58
2021/03/20 21:00:42;;;;;;;5.40;4.07;;;;;;;;;;5042418;28;20033;-57
2021/03/20 21:09:58;;;;;;;5.57;3.73;;;;;;;;;;5043076;28;20040;-58
2021/03/20 21:12:47;;;;;;;7.43;2.75;;;;;;;;;;5019374;28;20434;-57
2021/03/20 21:15:19;;;;;;;5.17;4.13;;;;;;;;;;5055788;28;20037;-57
2021/03/20 21:18:17;;;;;;;;;;;;;;;;;;;;;
2021/03/20 21:20:59;;;;;;;7.40;3.73;;;;;;;;;;5041217;28;20511;-55
2021/03/20 21:26:23;;;;;;;6.17;4.03;;;;;;;;;;5032841;28;20094;-58